sensor_id;sensor_type;location;lat;lon;timestamp;P1;durP1;ratioP1;P2;durP2;ratioP2
30458;SDS011;17254;50.976;7.034;2022-07-23T00:00:29;32.85;;;20.98;;
30458;SDS011;17254;50.976;7.034;2022-07-23T00:01:01;40.22;;;20.92;;
30458;SDS011;17254;50.976;7.034;2022-07-23T00:01:32;31.77;;;20.80;;
30458;SDS011;17254;50.976;7.034;2022-07-23T00:02:03;39.70;;;21.58;;
30458;SDS011;17254;50.976;7.034;2022-07-23T00:02:36;38.40;;;22.27;;
30458;SDS011;17254;50.976;7.034;2022-07-23T00:03:07;38.75;;;21.02;;
30458;SDS011;17254;50.976;7.034;2022-07-23T00:03:38;37.58;;;20.77;;
30458;SDS011;17254;50.976;7.034;2022-07-23T00:04:10;35.03;;;21.98;;
30458;SDS011;17254;50.976;7.034;2022-07-23T00:04:41;29.70;;;21.30;;
30458;SDS011;17254;50.976;7.034;2022-07-23T00:05:12;37.90;;;21.58;;
30458;SDS011;17254;50.976;7.034;2022-07-23T00:05:44;37.20;;;22.40;;
30458;SDS011;17254;50.976;7.034;2022-07-23T00:06:15;33.50;;;21.48;;
30458;SDS011;17254;50.976;7.034;2022-07-23T00:06:46;31.98;;;21.73;;
30458;SDS011;17254;50.976;7.034;2022-07-23T00:07:18;37.65;;;22.05;;
30458;SDS011;17254;50.976;7.034;2022-07-23T00:07:54;37.22;;;22.02;;
30458;SDS011;17254;50.976;7.034;2022-07-23T00:08:26;35.08;;;21.50;;
30458;SDS011;17254;50.976;7.034;2022-07-23T00:08:57;44.40;;;23.77;;
30458;SDS011;17254;50.976;7.034;2022-07-23T00:09:28;39.92;;;22.27;;
30458;SDS011;17254;50.976;7.034;2022-07-23T00:10:01;40.17;;;24.63;;
30458;SDS011;17254;50.976;7.034;2022-07-23T00:10:32;37.88;;;23.67;;
30458;SDS011;17254;50.976;7.034;2022-07-23T00:11:04;37.55;;;22.45;;
30458;SDS011;17254;50.976;7.034;2022-07-23T00:11:36;34.72;;;21.80;;
30458;SDS011;17254;50.976;7.034;2022-07-23T00:12:07;41.90;;;21.40;;
30458;SDS011;17254;50.976;7.034;2022-07-23T00:12:40;39.17;;;22.88;;
30458;SDS011;17254;50.976;7.034;2022-07-23T00:13:12;39.75;;;24.15;;
30458;SDS011;17254;50.976;7.034;2022-07-23T00:13:43;40.53;;;22.63;;
30458;SDS011;17254;50.976;7.034;2022-07-23T00:14:15;39.47;;;24.27;;
30458;SDS011;17254;50.976;7.034;2022-07-23T00:14:47;37.92;;;23.48;;
30458;SDS011;17254;50.976;7.034;2022-07-23T00:15:18;34.53;;;21.48;;
30458;SDS011;17254;50.976;7.034;2022-07-23T00:15:50;44.03;;;21.83;;
30458;SDS011;17254;50.976;7.034;2022-07-23T00:16:22;33.50;;;21.17;;
30458;SDS011;17254;50.976;7.034;2022-07-23T00:16:54;40.20;;;22.75;;
30458;SDS011;17254;50.976;7.034;2022-07-23T00:17:24;36.55;;;22.10;;
30458;SDS011;17254;50.976;7.034;2022-07-23T00:17:56;38.40;;;22.38;;
30458;SDS011;17254;50.976;7.034;2022-07-23T00:18:27;38.90;;;22.90;;
30458;SDS011;17254;50.976;7.034;2022-07-23T00:18:58;37.92;;;21.88;;
30458;SDS011;17254;50.976;7.034;2022-07-23T00:19:32;37.47;;;21.50;;
30458;SDS011;17254;50.976;7.034;2022-07-23T00:20:04;33.50;;;20.52;;
30458;SDS011;17254;50.976;7.034;2022-07-23T00:20:36;31.85;;;20.42;;
30458;SDS011;17254;50.976;7.034;2022-07-23T00:21:08;37.83;;;20.92;;
30458;SDS011;17254;50.976;7.034;2022-07-23T00:21:39;36.15;;;21.70;;
30458;SDS011;17254;50.976;7.034;2022-07-23T00:22:10;34.15;;;21.25;;
30458;SDS011;17254;50.976;7.034;2022-07-23T00:22:45;36.67;;;20.65;;
30458;SDS011;17254;50.976;7.034;2022-07-23T00:23:17;40.38;;;22.52;;
30458;SDS011;17254;50.976;7.034;2022-07-23T00:23:48;35.25;;;20.70;;
30458;SDS011;17254;50.976;7.034;2022-07-23T00:24:20;39.15;;;21.77;;
30458;SDS011;17254;50.976;7.034;2022-07-23T00:24:51;34.83;;;20.95;;
30458;SDS011;17254;50.976;7.034;2022-07-23T00:25:22;40.17;;;23.45;;
30458;SDS011;17254;50.976;7.034;2022-07-23T00:25:55;42.28;;;22.90;;
30458;SDS011;17254;50.976;7.034;2022-07-23T00:26:26;45.17;;;23.38;;
30458;SDS011;17254;50.976;7.034;2022-07-23T00:26:57;41.78;;;23.85;;
30458;SDS011;17254;50.976;7.034;2022-07-23T00:27:29;44.42;;;25.63;;
30458;SDS011;17254;50.976;7.034;2022-07-23T00:28:00;46.25;;;24.45;;
30458;SDS011;17254;50.976;7.034;2022-07-23T00:28:32;42.45;;;24.58;;
30458;SDS011;17254;50.976;7.034;2022-07-23T00:29:04;46.92;;;24.95;;
30458;SDS011;17254;50.976;7.034;2022-07-23T00:29:35;51.22;;;25.52;;
30458;SDS011;17254;50.976;7.034;2022-07-23T00:30:07;42.45;;;25.13;;
30458;SDS011;17254;50.976;7.034;2022-07-23T00:30:39;55.78;;;27.50;;
30458;SDS011;17254;50.976;7.034;2022-07-23T00:31:12;51.75;;;27.40;;
30458;SDS011;17254;50.976;7.034;2022-07-23T00:31:43;46.65;;;28.98;;
30458;SDS011;17254;50.976;7.034;2022-07-23T00:32:29;54.45;;;29.17;;
30458;SDS011;17254;50.976;7.034;2022-07-23T00:33:01;48.65;;;29.63;;
30458;SDS011;17254;50.976;7.034;2022-07-23T00:33:34;52.47;;;27.83;;
30458;SDS011;17254;50.976;7.034;2022-07-23T00:34:06;61.53;;;31.30;;
30458;SDS011;17254;50.976;7.034;2022-07-23T00:34:37;61.08;;;30.85;;
30458;SDS011;17254;50.976;7.034;2022-07-23T00:35:09;62.28;;;31.50;;
30458;SDS011;17254;50.976;7.034;2022-07-23T00:35:40;62.05;;;33.97;;
30458;SDS011;17254;50.976;7.034;2022-07-23T00:36:12;59.72;;;31.83;;
30458;SDS011;17254;50.976;7.034;2022-07-23T00:36:43;64.72;;;33.58;;
30458;SDS011;17254;50.976;7.034;2022-07-23T00:37:21;59.25;;;32.53;;
30458;SDS011;17254;50.976;7.034;2022-07-23T00:37:52;70.43;;;35.17;;
30458;SDS011;17254;50.976;7.034;2022-07-23T00:38:24;63.53;;;33.38;;
30458;SDS011;17254;50.976;7.034;2022-07-23T00:38:56;62.83;;;35.13;;
30458;SDS011;17254;50.976;7.034;2022-07-23T00:39:27;62.40;;;34.60;;
30458;SDS011;17254;50.976;7.034;2022-07-23T00:39:58;76.13;;;37.75;;
30458;SDS011;17254;50.976;7.034;2022-07-23T00:40:30;77.10;;;38.35;;
30458;SDS011;17254;50.976;7.034;2022-07-23T00:41:02;68.22;;;36.42;;
30458;SDS011;17254;50.976;7.034;2022-07-23T00:41:33;70.93;;;37.53;;
30458;SDS011;17254;50.976;7.034;2022-07-23T00:42:05;63.13;;;35.45;;
30458;SDS011;17254;50.976;7.034;2022-07-23T00:42:36;79.30;;;36.55;;
30458;SDS011;17254;50.976;7.034;2022-07-23T00:43:08;71.10;;;37.22;;
30458;SDS011;17254;50.976;7.034;2022-07-23T00:43:40;80.68;;;38.83;;
30458;SDS011;17254;50.976;7.034;2022-07-23T00:44:14;65.07;;;38.40;;
30458;SDS011;17254;50.976;7.034;2022-07-23T00:44:46;71.13;;;37.30;;
30458;SDS011;17254;50.976;7.034;2022-07-23T00:45:18;77.20;;;38.65;;
30458;SDS011;17254;50.976;7.034;2022-07-23T00:45:49;82.40;;;39.70;;
30458;SDS011;17254;50.976;7.034;2022-07-23T00:46:22;79.95;;;40.92;;
30458;SDS011;17254;50.976;7.034;2022-07-23T00:46:56;75.00;;;38.35;;
30458;SDS011;17254;50.976;7.034;2022-07-23T00:47:29;79.78;;;41.22;;
30458;SDS011;17254;50.976;7.034;2022-07-23T00:48:02;85.40;;;42.60;;
30458;SDS011;17254;50.976;7.034;2022-07-23T00:48:34;82.00;;;41.28;;
30458;SDS011;17254;50.976;7.034;2022-07-23T00:49:05;74.72;;;39.90;;
30458;SDS011;17254;50.976;7.034;2022-07-23T00:49:36;80.85;;;39.65;;
30458;SDS011;17254;50.976;7.034;2022-07-23T00:50:08;77.65;;;41.92;;
30458;SDS011;17254;50.976;7.034;2022-07-23T00:50:40;82.05;;;41.70;;
30458;SDS011;17254;50.976;7.034;2022-07-23T00:51:12;90.97;;;42.83;;
30458;SDS011;17254;50.976;7.034;2022-07-23T00:51:45;77.55;;;40.47;;
30458;SDS011;17254;50.976;7.034;2022-07-23T00:52:19;82.97;;;40.40;;
30458;SDS011;17254;50.976;7.034;2022-07-23T00:52:52;84.47;;;41.72;;
30458;SDS011;17254;50.976;7.034;2022-07-23T00:53:26;83.32;;;39.70;;
30458;SDS011;17254;50.976;7.034;2022-07-23T00:53:57;87.93;;;40.50;;
30458;SDS011;17254;50.976;7.034;2022-07-23T00:54:30;76.10;;;39.08;;
30458;SDS011;17254;50.976;7.034;2022-07-23T00:55:02;88.10;;;41.22;;
30458;SDS011;17254;50.976;7.034;2022-07-23T00:55:34;76.68;;;40.53;;
30458;SDS011;17254;50.976;7.034;2022-07-23T00:56:06;79.00;;;40.38;;
30458;SDS011;17254;50.976;7.034;2022-07-23T00:56:38;74.53;;;39.78;;
30458;SDS011;17254;50.976;7.034;2022-07-23T00:57:10;91.32;;;40.80;;
30458;SDS011;17254;50.976;7.034;2022-07-23T00:57:46;80.93;;;40.80;;
30458;SDS011;17254;50.976;7.034;2022-07-23T00:58:18;76.65;;;40.03;;
30458;SDS011;17254;50.976;7.034;2022-07-23T00:58:49;81.03;;;40.47;;
30458;SDS011;17254;50.976;7.034;2022-07-23T00:59:21;83.60;;;40.40;;
30458;SDS011;17254;50.976;7.034;2022-07-23T00:59:53;77.97;;;41.28;;
30458;SDS011;17254;50.976;7.034;2022-07-23T01:00:24;94.60;;;41.28;;
30458;SDS011;17254;50.976;7.034;2022-07-23T01:00:55;83.88;;;39.58;;
30458;SDS011;17254;50.976;7.034;2022-07-23T01:01:28;92.97;;;40.72;;
30458;SDS011;17254;50.976;7.034;2022-07-23T01:01:59;86.65;;;40.83;;
30458;SDS011;17254;50.976;7.034;2022-07-23T01:02:31;76.80;;;39.80;;
30458;SDS011;17254;50.976;7.034;2022-07-23T01:03:03;70.85;;;37.92;;
30458;SDS011;17254;50.976;7.034;2022-07-23T01:03:34;80.45;;;40.10;;
30458;SDS011;17254;50.976;7.034;2022-07-23T01:04:05;86.00;;;42.05;;
30458;SDS011;17254;50.976;7.034;2022-07-23T01:04:37;75.70;;;38.85;;
30458;SDS011;17254;50.976;7.034;2022-07-23T01:05:09;80.18;;;38.13;;
30458;SDS011;17254;50.976;7.034;2022-07-23T01:05:40;90.13;;;42.25;;
30458;SDS011;17254;50.976;7.034;2022-07-23T01:06:13;90.15;;;41.08;;
30458;SDS011;17254;50.976;7.034;2022-07-23T01:06:44;84.00;;;39.58;;
30458;SDS011;17254;50.976;7.034;2022-07-23T01:07:16;89.03;;;39.85;;
30458;SDS011;17254;50.976;7.034;2022-07-23T01:07:49;82.60;;;39.95;;
30458;SDS011;17254;50.976;7.034;2022-07-23T01:08:20;75.38;;;39.13;;
30458;SDS011;17254;50.976;7.034;2022-07-23T01:08:52;81.35;;;39.78;;
30458;SDS011;17254;50.976;7.034;2022-07-23T01:09:24;92.78;;;40.80;;
30458;SDS011;17254;50.976;7.034;2022-07-23T01:09:56;75.65;;;37.63;;
30458;SDS011;17254;50.976;7.034;2022-07-23T01:10:28;76.38;;;38.63;;
30458;SDS011;17254;50.976;7.034;2022-07-23T01:11:03;81.75;;;38.85;;
30458;SDS011;17254;50.976;7.034;2022-07-23T01:11:35;96.95;;;42.63;;
30458;SDS011;17254;50.976;7.034;2022-07-23T01:12:10;78.28;;;38.85;;
30458;SDS011;17254;50.976;7.034;2022-07-23T01:12:42;78.10;;;39.20;;
30458;SDS011;17254;50.976;7.034;2022-07-23T01:13:13;80.80;;;39.83;;
30458;SDS011;17254;50.976;7.034;2022-07-23T01:13:44;80.28;;;38.38;;
30458;SDS011;17254;50.976;7.034;2022-07-23T01:14:17;74.63;;;39.67;;
30458;SDS011;17254;50.976;7.034;2022-07-23T01:14:53;81.38;;;40.13;;
30458;SDS011;17254;50.976;7.034;2022-07-23T01:15:24;77.50;;;39.78;;
30458;SDS011;17254;50.976;7.034;2022-07-23T01:15:56;80.82;;;39.85;;
30458;SDS011;17254;50.976;7.034;2022-07-23T01:16:29;77.45;;;37.78;;
30458;SDS011;17254;50.976;7.034;2022-07-23T01:17:00;80.38;;;38.55;;
30458;SDS011;17254;50.976;7.034;2022-07-23T01:17:32;79.95;;;37.55;;
30458;SDS011;17254;50.976;7.034;2022-07-23T01:18:04;88.90;;;39.22;;
30458;SDS011;17254;50.976;7.034;2022-07-23T01:18:38;90.53;;;41.55;;
30458;SDS011;17254;50.976;7.034;2022-07-23T01:19:10;71.78;;;37.15;;
30458;SDS011;17254;50.976;7.034;2022-07-23T01:19:42;86.80;;;39.72;;
30458;SDS011;17254;50.976;7.034;2022-07-23T01:20:14;82.50;;;38.38;;
30458;SDS011;17254;50.976;7.034;2022-07-23T01:20:45;86.22;;;38.90;;
30458;SDS011;17254;50.976;7.034;2022-07-23T01:21:16;100.28;;;40.00;;
30458;SDS011;17254;50.976;7.034;2022-07-23T01:21:50;85.90;;;39.30;;
30458;SDS011;17254;50.976;7.034;2022-07-23T01:22:22;90.07;;;39.50;;
30458;SDS011;17254;50.976;7.034;2022-07-23T01:22:55;80.22;;;38.25;;
30458;SDS011;17254;50.976;7.034;2022-07-23T01:23:27;84.38;;;39.85;;
30458;SDS011;17254;50.976;7.034;2022-07-23T01:24:01;91.40;;;40.50;;
30458;SDS011;17254;50.976;7.034;2022-07-23T01:24:32;98.97;;;40.30;;
30458;SDS011;17254;50.976;7.034;2022-07-23T01:25:10;79.90;;;38.72;;
30458;SDS011;17254;50.976;7.034;2022-07-23T01:25:47;90.13;;;41.08;;
30458;SDS011;17254;50.976;7.034;2022-07-23T01:26:20;90.85;;;41.70;;
30458;SDS011;17254;50.976;7.034;2022-07-23T01:26:52;94.50;;;39.70;;
30458;SDS011;17254;50.976;7.034;2022-07-23T01:27:23;94.75;;;41.47;;
30458;SDS011;17254;50.976;7.034;2022-07-23T01:27:59;94.22;;;42.67;;
30458;SDS011;17254;50.976;7.034;2022-07-23T01:28:31;94.38;;;43.13;;
30458;SDS011;17254;50.976;7.034;2022-07-23T01:29:03;87.93;;;40.05;;
30458;SDS011;17254;50.976;7.034;2022-07-23T01:29:35;101.72;;;42.83;;
30458;SDS011;17254;50.976;7.034;2022-07-23T01:30:11;87.15;;;41.95;;
30458;SDS011;17254;50.976;7.034;2022-07-23T01:30:44;118.03;;;44.13;;
30458;SDS011;17254;50.976;7.034;2022-07-23T01:31:15;111.20;;;46.17;;
30458;SDS011;17254;50.976;7.034;2022-07-23T01:31:47;118.78;;;45.95;;
30458;SDS011;17254;50.976;7.034;2022-07-23T01:32:19;102.20;;;45.00;;
30458;SDS011;17254;50.976;7.034;2022-07-23T01:32:50;105.25;;;46.40;;
30458;SDS011;17254;50.976;7.034;2022-07-23T01:33:21;108.43;;;45.45;;
30458;SDS011;17254;50.976;7.034;2022-07-23T01:33:52;112.85;;;46.88;;
30458;SDS011;17254;50.976;7.034;2022-07-23T01:34:24;112.85;;;45.90;;
30458;SDS011;17254;50.976;7.034;2022-07-23T01:34:55;111.22;;;44.83;;
30458;SDS011;17254;50.976;7.034;2022-07-23T01:35:27;114.18;;;47.75;;
30458;SDS011;17254;50.976;7.034;2022-07-23T01:36:03;111.15;;;47.30;;
30458;SDS011;17254;50.976;7.034;2022-07-23T01:36:34;105.63;;;44.97;;
30458;SDS011;17254;50.976;7.034;2022-07-23T01:37:06;101.95;;;46.72;;
30458;SDS011;17254;50.976;7.034;2022-07-23T01:37:37;103.93;;;47.58;;
30458;SDS011;17254;50.976;7.034;2022-07-23T01:38:12;107.05;;;47.08;;
30458;SDS011;17254;50.976;7.034;2022-07-23T01:38:44;99.85;;;45.70;;
30458;SDS011;17254;50.976;7.034;2022-07-23T01:39:15;102.50;;;47.08;;
30458;SDS011;17254;50.976;7.034;2022-07-23T01:39:47;100.65;;;45.92;;
30458;SDS011;17254;50.976;7.034;2022-07-23T01:40:18;106.20;;;46.05;;
30458;SDS011;17254;50.976;7.034;2022-07-23T01:40:50;102.95;;;44.72;;
30458;SDS011;17254;50.976;7.034;2022-07-23T01:41:21;106.18;;;45.65;;
30458;SDS011;17254;50.976;7.034;2022-07-23T01:41:53;107.10;;;47.03;;
30458;SDS011;17254;50.976;7.034;2022-07-23T01:42:25;120.57;;;46.63;;
30458;SDS011;17254;50.976;7.034;2022-07-23T01:42:56;111.30;;;46.05;;
30458;SDS011;17254;50.976;7.034;2022-07-23T01:43:29;110.18;;;45.15;;
30458;SDS011;17254;50.976;7.034;2022-07-23T01:44:00;108.50;;;47.67;;
30458;SDS011;17254;50.976;7.034;2022-07-23T01:44:31;116.72;;;44.38;;
30458;SDS011;17254;50.976;7.034;2022-07-23T01:45:03;110.38;;;44.53;;
30458;SDS011;17254;50.976;7.034;2022-07-23T01:45:36;106.38;;;45.15;;
30458;SDS011;17254;50.976;7.034;2022-07-23T01:46:07;106.25;;;45.70;;
30458;SDS011;17254;50.976;7.034;2022-07-23T01:46:44;107.20;;;45.20;;
30458;SDS011;17254;50.976;7.034;2022-07-23T01:47:16;105.72;;;44.53;;
30458;SDS011;17254;50.976;7.034;2022-07-23T01:47:48;104.43;;;44.15;;
30458;SDS011;17254;50.976;7.034;2022-07-23T01:48:20;113.88;;;46.83;;
30458;SDS011;17254;50.976;7.034;2022-07-23T01:49:06;114.60;;;45.13;;
30458;SDS011;17254;50.976;7.034;2022-07-23T01:50:07;113.47;;;46.22;;
30458;SDS011;17254;50.976;7.034;2022-07-23T01:50:46;101.40;;;44.30;;
30458;SDS011;17254;50.976;7.034;2022-07-23T01:51:38;119.22;;;46.78;;
30458;SDS011;17254;50.976;7.034;2022-07-23T01:52:29;121.05;;;47.53;;
30458;SDS011;17254;50.976;7.034;2022-07-23T01:53:01;121.32;;;47.75;;
30458;SDS011;17254;50.976;7.034;2022-07-23T01:53:34;118.65;;;47.13;;
30458;SDS011;17254;50.976;7.034;2022-07-23T01:54:05;124.85;;;46.35;;
30458;SDS011;17254;50.976;7.034;2022-07-23T01:54:37;128.48;;;47.92;;
30458;SDS011;17254;50.976;7.034;2022-07-23T01:55:10;116.28;;;46.42;;
30458;SDS011;17254;50.976;7.034;2022-07-23T01:55:45;122.80;;;48.60;;
30458;SDS011;17254;50.976;7.034;2022-07-23T01:56:18;116.55;;;45.63;;
30458;SDS011;17254;50.976;7.034;2022-07-23T01:56:51;111.80;;;47.38;;
30458;SDS011;17254;50.976;7.034;2022-07-23T01:57:22;129.98;;;50.00;;
30458;SDS011;17254;50.976;7.034;2022-07-23T01:57:54;114.80;;;48.08;;
30458;SDS011;17254;50.976;7.034;2022-07-23T01:58:27;123.28;;;48.60;;
30458;SDS011;17254;50.976;7.034;2022-07-23T01:59:06;135.35;;;48.92;;
30458;SDS011;17254;50.976;7.034;2022-07-23T01:59:38;132.35;;;47.70;;
30458;SDS011;17254;50.976;7.034;2022-07-23T02:00:10;118.95;;;47.90;;
30458;SDS011;17254;50.976;7.034;2022-07-23T02:00:46;121.10;;;48.17;;
30458;SDS011;17254;50.976;7.034;2022-07-23T02:01:18;122.05;;;47.05;;
30458;SDS011;17254;50.976;7.034;2022-07-23T02:01:49;118.72;;;46.20;;
30458;SDS011;17254;50.976;7.034;2022-07-23T02:02:21;115.60;;;46.63;;
30458;SDS011;17254;50.976;7.034;2022-07-23T02:02:53;116.30;;;47.15;;
30458;SDS011;17254;50.976;7.034;2022-07-23T02:03:26;122.03;;;46.65;;
30458;SDS011;17254;50.976;7.034;2022-07-23T02:03:58;100.13;;;43.67;;
30458;SDS011;17254;50.976;7.034;2022-07-23T02:04:29;109.82;;;44.50;;
30458;SDS011;17254;50.976;7.034;2022-07-23T02:05:00;119.47;;;46.38;;
30458;SDS011;17254;50.976;7.034;2022-07-23T02:05:32;109.30;;;46.22;;
30458;SDS011;17254;50.976;7.034;2022-07-23T02:06:03;111.88;;;44.08;;
30458;SDS011;17254;50.976;7.034;2022-07-23T02:06:34;107.82;;;46.15;;
30458;SDS011;17254;50.976;7.034;2022-07-23T02:07:06;96.60;;;41.78;;
30458;SDS011;17254;50.976;7.034;2022-07-23T02:07:37;99.65;;;44.88;;
30458;SDS011;17254;50.976;7.034;2022-07-23T02:08:08;101.60;;;44.00;;
30458;SDS011;17254;50.976;7.034;2022-07-23T02:08:42;99.38;;;42.83;;
30458;SDS011;17254;50.976;7.034;2022-07-23T02:09:13;101.38;;;41.17;;
30458;SDS011;17254;50.976;7.034;2022-07-23T02:09:44;104.60;;;43.60;;
30458;SDS011;17254;50.976;7.034;2022-07-23T02:10:16;101.32;;;41.88;;
30458;SDS011;17254;50.976;7.034;2022-07-23T02:10:47;102.10;;;43.70;;
30458;SDS011;17254;50.976;7.034;2022-07-23T02:11:18;106.97;;;42.65;;
30458;SDS011;17254;50.976;7.034;2022-07-23T02:11:50;97.35;;;42.30;;
30458;SDS011;17254;50.976;7.034;2022-07-23T02:12:23;100.28;;;40.33;;
30458;SDS011;17254;50.976;7.034;2022-07-23T02:12:53;102.13;;;41.45;;
30458;SDS011;17254;50.976;7.034;2022-07-23T02:13:24;107.57;;;41.60;;
30458;SDS011;17254;50.976;7.034;2022-07-23T02:13:58;97.55;;;42.13;;
30458;SDS011;17254;50.976;7.034;2022-07-23T02:14:29;103.00;;;42.95;;
30458;SDS011;17254;50.976;7.034;2022-07-23T02:15:00;106.45;;;42.63;;
30458;SDS011;17254;50.976;7.034;2022-07-23T02:15:32;101.25;;;42.28;;
30458;SDS011;17254;50.976;7.034;2022-07-23T02:16:03;119.22;;;43.45;;
30458;SDS011;17254;50.976;7.034;2022-07-23T02:16:35;101.43;;;42.38;;
30458;SDS011;17254;50.976;7.034;2022-07-23T02:17:06;106.05;;;42.95;;
30458;SDS011;17254;50.976;7.034;2022-07-23T02:17:39;112.38;;;44.90;;
30458;SDS011;17254;50.976;7.034;2022-07-23T02:18:10;109.60;;;45.25;;
30458;SDS011;17254;50.976;7.034;2022-07-23T02:18:42;105.22;;;45.40;;
30458;SDS011;17254;50.976;7.034;2022-07-23T02:19:15;103.93;;;41.63;;
30458;SDS011;17254;50.976;7.034;2022-07-23T02:19:46;103.88;;;44.35;;
30458;SDS011;17254;50.976;7.034;2022-07-23T02:20:17;109.70;;;44.33;;
30458;SDS011;17254;50.976;7.034;2022-07-23T02:20:49;94.25;;;41.22;;
30458;SDS011;17254;50.976;7.034;2022-07-23T02:21:20;92.72;;;40.55;;
30458;SDS011;17254;50.976;7.034;2022-07-23T02:21:50;113.85;;;44.38;;
30458;SDS011;17254;50.976;7.034;2022-07-23T02:22:24;108.07;;;43.08;;
30458;SDS011;17254;50.976;7.034;2022-07-23T02:22:55;114.57;;;43.03;;
30458;SDS011;17254;50.976;7.034;2022-07-23T02:23:26;99.35;;;40.70;;
30458;SDS011;17254;50.976;7.034;2022-07-23T02:23:59;103.93;;;43.15;;
30458;SDS011;17254;50.976;7.034;2022-07-23T02:24:30;111.22;;;43.05;;
30458;SDS011;17254;50.976;7.034;2022-07-23T02:25:01;104.03;;;41.17;;
30458;SDS011;17254;50.976;7.034;2022-07-23T02:25:34;92.47;;;41.05;;
30458;SDS011;17254;50.976;7.034;2022-07-23T02:26:05;113.05;;;43.17;;
30458;SDS011;17254;50.976;7.034;2022-07-23T02:26:37;106.95;;;41.35;;
30458;SDS011;17254;50.976;7.034;2022-07-23T02:27:10;108.70;;;42.63;;
30458;SDS011;17254;50.976;7.034;2022-07-23T02:27:41;96.30;;;42.40;;
30458;SDS011;17254;50.976;7.034;2022-07-23T02:28:13;113.40;;;45.85;;
30458;SDS011;17254;50.976;7.034;2022-07-23T02:28:45;93.22;;;40.03;;
30458;SDS011;17254;50.976;7.034;2022-07-23T02:29:16;104.15;;;41.92;;
30458;SDS011;17254;50.976;7.034;2022-07-23T02:29:47;100.10;;;42.58;;
30458;SDS011;17254;50.976;7.034;2022-07-23T02:30:19;100.25;;;42.45;;
30458;SDS011;17254;50.976;7.034;2022-07-23T02:30:50;104.40;;;41.63;;
30458;SDS011;17254;50.976;7.034;2022-07-23T02:31:21;97.75;;;42.35;;
30458;SDS011;17254;50.976;7.034;2022-07-23T02:31:53;106.03;;;43.35;;
30458;SDS011;17254;50.976;7.034;2022-07-23T02:32:24;110.15;;;42.55;;
30458;SDS011;17254;50.976;7.034;2022-07-23T02:32:55;99.75;;;42.95;;
30458;SDS011;17254;50.976;7.034;2022-07-23T02:33:28;101.65;;;41.58;;
30458;SDS011;17254;50.976;7.034;2022-07-23T02:34:00;107.55;;;42.22;;
30458;SDS011;17254;50.976;7.034;2022-07-23T02:34:31;95.93;;;40.22;;
30458;SDS011;17254;50.976;7.034;2022-07-23T02:35:05;98.32;;;41.42;;
30458;SDS011;17254;50.976;7.034;2022-07-23T02:35:36;95.18;;;39.58;;
30458;SDS011;17254;50.976;7.034;2022-07-23T02:36:08;112.20;;;40.20;;
30458;SDS011;17254;50.976;7.034;2022-07-23T02:36:40;90.07;;;39.03;;
30458;SDS011;17254;50.976;7.034;2022-07-23T02:37:11;84.93;;;38.00;;
30458;SDS011;17254;50.976;7.034;2022-07-23T02:37:42;102.75;;;39.58;;
30458;SDS011;17254;50.976;7.034;2022-07-23T02:38:14;90.07;;;39.20;;
30458;SDS011;17254;50.976;7.034;2022-07-23T02:38:45;84.65;;;38.33;;
30458;SDS011;17254;50.976;7.034;2022-07-23T02:39:17;90.75;;;40.45;;
30458;SDS011;17254;50.976;7.034;2022-07-23T02:39:49;96.97;;;38.08;;
30458;SDS011;17254;50.976;7.034;2022-07-23T02:40:20;102.22;;;41.13;;
30458;SDS011;17254;50.976;7.034;2022-07-23T02:40:51;87.38;;;37.85;;
30458;SDS011;17254;50.976;7.034;2022-07-23T02:41:24;95.25;;;37.97;;
30458;SDS011;17254;50.976;7.034;2022-07-23T02:41:55;89.45;;;38.33;;
30458;SDS011;17254;50.976;7.034;2022-07-23T02:42:26;84.80;;;37.97;;
30458;SDS011;17254;50.976;7.034;2022-07-23T02:42:58;93.32;;;37.90;;
30458;SDS011;17254;50.976;7.034;2022-07-23T02:43:29;103.18;;;38.58;;
30458;SDS011;17254;50.976;7.034;2022-07-23T02:44:00;99.82;;;39.42;;
30458;SDS011;17254;50.976;7.034;2022-07-23T02:44:32;97.30;;;39.17;;
30458;SDS011;17254;50.976;7.034;2022-07-23T02:45:04;90.32;;;39.28;;
30458;SDS011;17254;50.976;7.034;2022-07-23T02:45:36;87.43;;;36.67;;
30458;SDS011;17254;50.976;7.034;2022-07-23T02:46:08;77.55;;;35.78;;
30458;SDS011;17254;50.976;7.034;2022-07-23T02:46:39;85.95;;;37.65;;
30458;SDS011;17254;50.976;7.034;2022-07-23T02:47:10;99.65;;;39.40;;
30458;SDS011;17254;50.976;7.034;2022-07-23T02:47:41;94.00;;;35.08;;
30458;SDS011;17254;50.976;7.034;2022-07-23T02:48:13;94.50;;;37.92;;
30458;SDS011;17254;50.976;7.034;2022-07-23T02:48:47;81.22;;;35.00;;
30458;SDS011;17254;50.976;7.034;2022-07-23T02:49:18;87.63;;;37.80;;
30458;SDS011;17254;50.976;7.034;2022-07-23T02:49:51;87.88;;;37.10;;
30458;SDS011;17254;50.976;7.034;2022-07-23T02:50:23;85.47;;;35.88;;
30458;SDS011;17254;50.976;7.034;2022-07-23T02:50:55;88.07;;;36.75;;
30458;SDS011;17254;50.976;7.034;2022-07-23T02:51:31;78.72;;;37.50;;
30458;SDS011;17254;50.976;7.034;2022-07-23T02:52:07;79.15;;;35.92;;
30458;SDS011;17254;50.976;7.034;2022-07-23T02:52:40;83.32;;;36.35;;
30458;SDS011;17254;50.976;7.034;2022-07-23T02:53:11;93.70;;;37.47;;
30458;SDS011;17254;50.976;7.034;2022-07-23T02:53:44;84.22;;;35.05;;
30458;SDS011;17254;50.976;7.034;2022-07-23T02:54:15;79.53;;;34.67;;
30458;SDS011;17254;50.976;7.034;2022-07-23T02:54:47;84.80;;;35.45;;
30458;SDS011;17254;50.976;7.034;2022-07-23T02:55:20;79.10;;;34.25;;
30458;SDS011;17254;50.976;7.034;2022-07-23T02:55:51;82.72;;;34.65;;
30458;SDS011;17254;50.976;7.034;2022-07-23T02:56:22;82.28;;;34.55;;
30458;SDS011;17254;50.976;7.034;2022-07-23T02:56:54;69.95;;;33.63;;
30458;SDS011;17254;50.976;7.034;2022-07-23T02:57:25;83.63;;;35.63;;
30458;SDS011;17254;50.976;7.034;2022-07-23T02:57:56;78.43;;;35.75;;
30458;SDS011;17254;50.976;7.034;2022-07-23T02:58:28;80.95;;;34.70;;
30458;SDS011;17254;50.976;7.034;2022-07-23T02:58:59;72.55;;;33.00;;
30458;SDS011;17254;50.976;7.034;2022-07-23T02:59:30;82.53;;;35.40;;
30458;SDS011;17254;50.976;7.034;2022-07-23T03:00:03;79.47;;;34.30;;
30458;SDS011;17254;50.976;7.034;2022-07-23T03:00:36;81.10;;;33.65;;
30458;SDS011;17254;50.976;7.034;2022-07-23T03:01:07;78.93;;;35.55;;
30458;SDS011;17254;50.976;7.034;2022-07-23T03:01:39;84.22;;;33.88;;
30458;SDS011;17254;50.976;7.034;2022-07-23T03:02:11;77.85;;;33.00;;
30458;SDS011;17254;50.976;7.034;2022-07-23T03:02:42;84.28;;;34.63;;
30458;SDS011;17254;50.976;7.034;2022-07-23T03:03:14;96.03;;;36.10;;
30458;SDS011;17254;50.976;7.034;2022-07-23T03:03:45;70.15;;;33.58;;
30458;SDS011;17254;50.976;7.034;2022-07-23T03:04:16;76.28;;;35.58;;
30458;SDS011;17254;50.976;7.034;2022-07-23T03:04:47;74.03;;;35.17;;
30458;SDS011;17254;50.976;7.034;2022-07-23T03:05:20;72.53;;;35.25;;
30458;SDS011;17254;50.976;7.034;2022-07-23T03:05:51;85.45;;;35.90;;
30458;SDS011;17254;50.976;7.034;2022-07-23T03:06:22;76.47;;;35.53;;
30458;SDS011;17254;50.976;7.034;2022-07-23T03:06:54;91.32;;;36.28;;
30458;SDS011;17254;50.976;7.034;2022-07-23T03:07:25;81.50;;;34.03;;
30458;SDS011;17254;50.976;7.034;2022-07-23T03:07:58;83.70;;;37.03;;
30458;SDS011;17254;50.976;7.034;2022-07-23T03:08:30;95.22;;;37.55;;